首页
METAR-TAF:

METAR-TAF

机场 :

班达拉奈克国际机场

可倫坡, 斯里兰卡

纬度: 07-10N, 经度: 079-53E, 海拔: 8米

当前天气观测

该预报发布于1小时和10分钟前的00:10 UTC
风速5节,风向南转南东,在东南南转西南之间变化
温度 26°C
湿度 94%
气压 1009 hPa
能見度: 7000
散云层高于1600英尺

METAR: VCBI 170010Z 16005KT 130V200 7000 SCT016 26/25 Q1009 NOSIG

时间: 06:50 (01:20 UTC)

预报

该预报发布于2小时和20分钟前的23:00 UTC
预报有效从17日的 00点(UTC)到 18日的 06点(UTC)
风速6节,风向
能見度: 8000
散云层高于1600英尺
成为
从 17日的 03点(UTC)到 17日的 05点(UTC)
风速10节,风向西南,有时为20节阵风
成为
从 17日的 14点(UTC)到 17日的 16点(UTC)
风速6节,风向

TAF: VCBI 162300Z 1700/1806 17006KT 8000 SCT016 TX31/1707Z TN25/1800Z BECMG 1703/1705 23010G20KT BECMG 1714/1716 19006KT

超过4000个机场的气象观测和天气预报(METAR&TAF报告)。

可查询的气象台以黄色和红色小点在地图上表示。

将鼠标移到小点上方,可查看气象台名称。

然后点击查看天气观测和预报。

如需切换地图:点击带黑十字的绿色按钮放大地图;点击带横线的绿色按钮缩小地图;或者点击绿色箭头查看邻近地区的地图。


METAR-TAF: